Time;durP1;ratioP1;P1;durP2;ratioP2;P2;SDS_P1;SDS_P2;PMS_P1;PMS_P2;Temp;Humidity;BMP_temperature;BMP_pressure;BME280_temperature;BME280_humidity;BME280_pressure;Samples;Min_cycle;Max_cycle;Signal;HPM_P1;HPM_P2
2023/01/30 00:00:28;;;;;;;44.10;29.58;;;;;;;3.54;100.00;101706.53;5083782;28;20058;-80
2023/01/30 00:02:54;;;;;;;43.83;31.35;;;;;;;3.56;100.00;101705.78;5082860;28;20044;-78
2023/01/30 00:05:19;;;;;;;46.15;30.55;;;;;;;3.63;100.00;101688.66;5084590;28;20017;-79
2023/01/30 00:07:46;;;;;;;45.10;31.20;;;;;;;3.63;100.00;101683.44;5081809;28;20032;-80
2023/01/30 00:10:11;;;;;;;46.28;32.30;;;;;;;3.64;100.00;101661.66;5080461;28;20052;-79
2023/01/30 00:12:36;;;;;;;43.55;30.52;;;;;;;3.65;100.00;101677.44;5084403;28;20056;-80
2023/01/30 00:15:02;;;;;;;45.08;30.08;;;;;;;3.66;100.00;101673.13;5082839;28;20425;-79
2023/01/30 00:17:28;;;;;;;42.78;30.67;;;;;;;3.70;100.00;101682.91;5083139;28;20040;-75
2023/01/30 00:19:53;;;;;;;45.72;31.70;;;;;;;3.70;100.00;101661.06;5083701;28;20036;-77
2023/01/30 00:22:18;;;;;;;43.63;29.58;;;;;;;3.76;100.00;101661.34;5082112;28;20039;-80
2023/01/30 00:24:44;;;;;;;45.17;30.48;;;;;;;3.84;100.00;101673.97;5084570;28;20060;-80
2023/01/30 00:27:09;;;;;;;44.05;30.95;;;;;;;3.80;100.00;101684.19;5081564;28;20032;-80
2023/01/30 00:29:34;;;;;;;44.80;32.00;;;;;;;3.75;100.00;101670.03;5083890;28;20403;-79
2023/01/30 00:32:00;;;;;;;44.10;30.13;;;;;;;3.76;100.00;101687.50;5082759;28;20036;-79
2023/01/30 00:34:25;;;;;;;44.42;30.85;;;;;;;3.78;100.00;101681.50;5082797;28;20521;-78
2023/01/30 00:36:50;;;;;;;44.15;31.80;;;;;;;3.80;100.00;101682.50;5083949;28;20123;-75
2023/01/30 00:39:16;;;;;;;45.50;31.92;;;;;;;3.82;100.00;101670.34;5080986;28;20024;-74
2023/01/30 00:47:09;;;;;;;43.33;31.10;;;;;;;3.91;100.00;101658.53;5081838;28;20120;-74
2023/01/30 00:49:35;;;;;;;44.33;30.42;;;;;;;3.92;100.00;101660.31;5083542;28;20056;-74
2023/01/30 00:52:01;;;;;;;44.90;32.03;;;;;;;3.87;100.00;101654.88;5082452;28;20032;-75
2023/01/30 00:54:26;;;;;;;45.80;30.85;;;;;;;3.91;100.00;101661.16;5082691;28;20162;-74
2023/01/30 00:56:52;;;;;;;45.08;31.75;;;;;;;3.90;100.00;101657.63;5083610;28;20364;-75
2023/01/30 00:59:17;;;;;;;45.17;32.90;;;;;;;3.89;100.00;101655.84;5081021;28;20435;-74
2023/01/30 01:01:42;;;;;;;44.80;31.77;;;;;;;3.93;100.00;101655.16;5084636;28;20501;-74
2023/01/30 01:04:09;;;;;;;45.58;32.05;;;;;;;3.95;100.00;101637.78;5081319;28;20029;-74
2023/01/30 01:06:36;;;;;;;44.45;31.77;;;;;;;3.95;100.00;101647.38;5083587;28;20024;-74
2023/01/30 01:09:02;;;;;;;44.22;31.25;;;;;;;3.96;100.00;101659.59;5082387;28;20028;-75
2023/01/30 01:11:27;;;;;;;44.22;31.70;;;;;;;4.02;100.00;101649.44;5082346;28;20032;-75
2023/01/30 01:13:58;;;;;;;44.58;31.17;;;;;;;3.99;100.00;101654.50;5083554;28;20028;-74
2023/01/30 01:16:25;;;;;;;43.58;30.40;;;;;;;4.00;100.00;101631.06;5082039;28;20102;-75
2023/01/30 01:18:51;;;;;;;46.13;30.10;;;;;;;4.03;100.00;101640.75;5083470;28;20429;-75
2023/01/30 01:21:17;;;;;;;44.50;31.45;;;;;;;4.09;100.00;101635.81;5081075;28;20032;-74
2023/01/30 01:23:43;;;;;;;43.35;30.65;;;;;;;4.14;100.00;101630.75;5084121;28;20063;-75
2023/01/30 01:26:08;;;;;;;44.58;31.40;;;;;;;4.15;100.00;101646.53;5081126;28;20033;-75
2023/01/30 01:28:34;;;;;;;42.35;30.85;;;;;;;4.15;100.00;101617.72;5083392;28;20033;-74
2023/01/30 01:30:59;;;;;;;42.63;30.20;;;;;;;4.19;100.00;101614.44;5082209;28;20391;-75
2023/01/30 01:33:28;;;;;;;42.40;29.60;;;;;;;4.32;100.00;101614.94;5081826;28;20360;-79
2023/01/30 01:35:56;;;;;;;42.45;30.00;;;;;;;4.30;100.00;101608.75;5083312;28;20024;-79
2023/01/30 01:38:22;;;;;;;43.10;29.40;;;;;;;4.33;100.00;101612.38;5081236;28;20430;-79
2023/01/30 01:41:03;;;;;;;43.15;30.20;;;;;;;4.36;100.00;101609.88;5086668;28;20028;-80
2023/01/30 01:43:34;;;;;;;41.75;27.85;;;;;;;4.42;100.00;101629.31;5086149;28;20090;-79
2023/01/30 01:46:10;;;;;;;42.25;30.02;;;;;;;4.46;100.00;101610.28;5086116;28;20028;-79
2023/01/30 01:48:43;;;;;;;42.05;28.85;;;;;;;4.52;100.00;101613.16;5087036;28;20028;-79
2023/01/30 01:51:19;;;;;;;41.58;29.10;;;;;;;4.48;100.00;101599.03;5084577;28;20016;-77
2023/01/30 01:54:15;;;;;;;43.13;29.73;;;;;;;4.45;100.00;101588.41;5084459;28;20025;-80
2023/01/30 01:56:44;;;;;;;43.40;29.23;;;;;;;4.46;100.00;101574.50;5087533;28;20134;-77
2023/01/30 01:59:31;;;;;;;42.28;30.15;;;;;;;4.48;100.00;101558.84;5084158;28;20037;-80
2023/01/30 02:02:02;;;;;;;43.30;29.58;;;;;;;4.47;100.00;101563.22;5085455;28;20036;-77
2023/01/30 02:07:18;;;;;;;40.30;29.20;;;;;;;4.46;100.00;101571.88;5084311;28;20399;-79
2023/01/30 02:09:44;;;;;;;41.25;28.55;;;;;;;4.52;100.00;101573.88;5084022;28;20463;-81
2023/01/30 02:12:11;;;;;;;41.92;30.30;;;;;;;4.52;100.00;101577.38;5086995;28;20032;-81
2023/01/30 02:14:37;;;;;;;40.63;28.25;;;;;;;4.53;100.00;101562.56;5084648;28;20039;-79
2023/01/30 02:17:03;;;;;;;41.83;29.77;;;;;;;4.57;100.00;101566.19;5086237;28;20375;-79
2023/01/30 02:19:54;;;;;;;41.40;29.08;;;;;;;4.58;100.00;101566.25;5085498;28;20094;-77
2023/01/30 02:22:38;;;;;;;40.72;28.92;;;;;;;4.60;100.00;101529.66;5086829;28;20389;-79
2023/01/30 02:25:35;;;;;;;41.80;28.08;;;;;;;4.66;100.00;101542.97;5085605;28;20521;-79
2023/01/30 02:28:02;;;;;;;42.72;30.15;;;;;;;4.60;100.00;101546.28;5085614;28;20028;-74
2023/01/30 02:31:05;;;;;;;40.17;28.27;;;;;;;4.56;100.00;101531.28;5085420;28;20061;-76
2023/01/30 02:33:40;;;;;;;42.03;29.73;;;;;;;4.59;100.00;101530.47;5085610;28;20095;-76
2023/01/30 02:36:17;;;;;;;40.42;30.23;;;;;;;4.60;100.00;101527.03;5084201;28;20489;-74
2023/01/30 02:39:05;;;;;;;41.78;29.08;;;;;;;4.52;100.00;101526.72;5083331;28;20103;-74
2023/01/30 02:41:33;;;;;;;42.17;29.15;;;;;;;4.46;100.00;101530.00;5085153;28;20031;-75
2023/01/30 02:44:36;;;;;;;42.00;29.98;;;;;;;4.44;100.00;101534.28;5085102;28;20028;-74
2023/01/30 02:47:14;;;;;;;43.15;31.25;;;;;;;4.41;100.00;101535.88;5085157;28;20031;-75
2023/01/30 02:49:47;;;;;;;47.60;30.95;;;;;;;4.39;100.00;101525.34;5083439;28;20109;-75
2023/01/30 02:52:14;;;;;;;44.63;32.30;;;;;;;4.40;100.00;101518.38;5081890;28;20426;-76
2023/01/30 02:54:39;;;;;;;46.95;31.77;;;;;;;4.39;100.00;101516.59;5086257;28;20032;-75
2023/01/30 02:57:18;;;;;;;44.35;31.73;;;;;;;4.34;100.00;101532.13;5084076;28;20040;-75
2023/01/30 02:59:47;;;;;;;49.65;33.67;;;;;;;4.38;100.00;101520.94;5082831;28;20043;-74
2023/01/30 03:02:24;;;;;;;46.75;33.67;;;;;;;4.35;100.00;101523.44;5083005;28;20053;-74
2023/01/30 03:05:14;;;;;;;48.85;34.47;;;;;;;4.34;100.00;101522.53;5083294;28;20099;-74
2023/01/30 03:07:45;;;;;;;47.58;31.45;;;;;;;4.43;100.00;101505.44;5083066;28;20107;-74
2023/01/30 03:10:26;;;;;;;47.20;33.97;;;;;;;4.42;100.00;101501.91;5086171;28;20071;-75
2023/01/30 03:13:08;;;;;;;46.55;32.60;;;;;;;4.38;100.00;101515.69;5083290;28;20029;-74
2023/01/30 03:15:37;;;;;;;;;;;;;;;4.40;100.00;101507.91;5084429;28;20028;-74
2023/01/30 03:18:03;;;;;;;49.65;35.17;;;;;;;4.36;100.00;101493.81;5084652;28;19917;-76
2023/01/30 03:20:29;;;;;;;50.42;34.72;;;;;;;4.34;100.00;101511.19;5084386;28;20364;-74
2023/01/30 03:22:54;;;;;;;54.13;37.75;;;;;;;4.30;100.00;101497.06;5083413;28;20062;-75
2023/01/30 03:25:25;;;;;;;56.20;37.88;;;;;;;4.25;100.00;101503.84;5085418;28;20020;-74
2023/01/30 03:27:52;;;;;;;54.72;35.35;;;;;;;4.30;100.00;101496.19;5082808;28;20081;-75
2023/01/30 03:30:18;;;;;;;55.60;37.22;;;;;;;4.29;100.00;101502.25;5085900;28;20020;-74
2023/01/30 03:32:43;;;;;;;56.45;39.17;;;;;;;4.27;100.00;101509.16;5082341;28;20055;-75
2023/01/30 03:35:08;;;;;;;55.95;38.22;;;;;;;4.27;100.00;101511.78;5085013;28;20063;-75
2023/01/30 03:37:34;;;;;;;58.95;38.75;;;;;;;4.24;100.00;101488.97;5083633;28;20077;-73
2023/01/30 03:40:00;;;;;;;59.42;38.88;;;;;;;4.24;100.00;101473.28;5083788;28;20032;-75
2023/01/30 03:42:25;;;;;;;58.40;38.70;;;;;;;4.26;100.00;101486.41;5084702;28;20460;-74
2023/01/30 03:44:51;;;;;;;56.60;37.17;;;;;;;4.30;100.00;101472.63;5082542;28;20037;-75
2023/01/30 03:47:16;;;;;;;62.63;38.78;;;;;;;4.29;100.00;101476.06;5085472;28;20024;-75
2023/01/30 03:49:41;;;;;;;59.40;37.90;;;;;;;4.30;100.00;101483.09;5082272;28;20055;-75
2023/01/30 03:52:06;;;;;;;65.60;40.20;;;;;;;4.29;100.00;101478.69;5084610;28;20023;-73
2023/01/30 03:54:32;;;;;;;62.88;40.72;;;;;;;4.31;100.00;101480.53;5083356;28;20386;-75
2023/01/30 03:56:57;;;;;;;63.05;40.95;;;;;;;4.29;100.00;101481.31;5083445;28;20370;-75
2023/01/30 03:59:22;;;;;;;64.45;39.78;;;;;;;4.27;100.00;101483.88;5084542;28;20043;-73
2023/01/30 04:01:48;;;;;;;68.85;40.80;;;;;;;4.28;100.00;101488.28;5081722;28;20032;-74
2023/01/30 04:04:13;;;;;;;70.18;43.38;;;;;;;4.29;100.00;101491.78;5085165;28;20034;-73
2023/01/30 04:06:38;;;;;;;71.55;41.72;;;;;;;4.31;100.00;101480.53;5082170;28;20059;-73
2023/01/30 04:09:04;;;;;;;68.32;39.45;;;;;;;4.30;100.00;101489.22;5083897;28;20482;-74
2023/01/30 04:11:29;;;;;;;70.32;41.35;;;;;;;4.29;100.00;101497.88;5083639;28;20111;-74
2023/01/30 04:13:55;;;;;;;70.43;40.70;;;;;;;4.32;100.00;101487.53;5082521;28;20024;-74
2023/01/30 04:16:23;;;;;;;66.38;41.75;;;;;;;4.38;100.00;101494.75;5084948;28;20024;-73
2023/01/30 04:18:48;;;;;;;66.72;40.80;;;;;;;4.39;100.00;101493.03;5081550;28;20383;-73
2023/01/30 04:21:14;;;;;;;67.03;38.88;;;;;;;4.37;100.00;101474.66;5085061;28;20031;-75
2023/01/30 04:23:40;;;;;;;62.80;38.80;;;;;;;4.46;100.00;101474.13;5081839;28;20127;-80
2023/01/30 04:26:07;;;;;;;63.28;39.10;;;;;;;4.50;100.00;101482.16;5083966;28;20352;-80
2023/01/30 04:28:32;;;;;;;62.25;38.88;;;;;;;4.53;100.00;101477.03;5083120;28;20056;-80
2023/01/30 04:30:58;;;;;;;63.03;38.45;;;;;;;4.57;100.00;101470.19;5082872;28;20059;-76
2023/01/30 04:33:23;;;;;;;59.55;38.05;;;;;;;4.61;100.00;101463.34;5083988;28;20028;-80
2023/01/30 04:35:57;;;;;;;60.83;39.80;;;;;;;4.66;100.00;101472.25;5081329;28;20020;-75
2023/01/30 04:38:24;;;;;;;56.08;36.33;;;;;;;4.68;100.00;101481.09;5084139;28;20378;-74
2023/01/30 04:40:53;;;;;;;55.50;36.65;;;;;;;4.73;100.00;101484.75;5081541;28;20021;-80
2023/01/30 04:43:20;;;;;;;52.50;34.45;;;;;;;4.74;100.00;101476.06;5084489;28;20494;-76
2023/01/30 04:45:47;;;;;;;55.72;33.72;;;;;;;4.77;100.00;101481.44;5079973;28;20036;-80
2023/01/30 04:48:13;;;;;;;47.72;30.23;;;;;;;4.77;100.00;101478.81;5084578;28;20036;-79
2023/01/30 04:50:40;;;;;;;47.95;30.25;;;;;;;4.83;100.00;101484.28;5081732;28;20028;-78
2023/01/30 04:53:05;;;;;;;46.92;30.23;;;;;;;4.88;100.00;101479.25;5083685;28;20398;-78
2023/01/30 04:55:30;;;;;;;44.67;29.65;;;;;;;4.91;100.00;101475.81;5082890;28;20123;-80
2023/01/30 04:57:56;;;;;;;44.17;26.10;;;;;;;4.88;100.00;101474.88;5082117;28;20479;-80
2023/01/30 05:00:21;;;;;;;41.03;26.38;;;;;;;4.94;100.00;101481.19;5084074;28;20090;-78
2023/01/30 05:02:47;;;;;;;40.00;24.42;;;;;;;4.94;100.00;101473.34;5080946;28;20036;-80
2023/01/30 05:05:12;;;;;;;39.90;24.10;;;;;;;4.98;100.00;101480.44;5084308;28;20036;-78
2023/01/30 05:07:37;;;;;;;40.85;23.40;;;;;;;4.96;100.00;101479.50;5081879;28;20028;-80
2023/01/30 05:10:03;;;;;;;39.50;22.48;;;;;;;5.02;100.00;101501.63;5083104;28;20477;-80
2023/01/30 05:12:29;;;;;;;38.47;21.40;;;;;;;5.04;100.00;101475.47;5082885;28;20028;-78
2023/01/30 05:14:55;;;;;;;38.63;21.42;;;;;;;5.04;100.00;101494.69;5083398;28;20036;-80
2023/01/30 05:17:20;;;;;;;37.92;21.77;;;;;;;5.08;100.00;101487.81;5088226;28;20035;-74
2023/01/30 05:19:45;;;;;;;37.00;20.23;;;;;;;5.09;100.00;101484.38;5084860;28;20036;-74
2023/01/30 05:22:11;;;;;;;34.25;20.10;;;;;;;5.11;100.00;101482.72;5088360;28;20060;-73
2023/01/30 05:24:36;;;;;;;34.70;19.15;;;;;;;5.13;100.00;101474.91;5085550;28;20494;-73
2023/01/30 05:27:02;;;;;;;35.50;18.65;;;;;;;5.19;100.00;101478.63;5086486;28;20029;-74
2023/01/30 05:29:27;;;;;;;33.45;17.90;;;;;;;5.19;100.00;101485.59;5087172;28;20035;-74
2023/01/30 05:31:52;;;;;;;30.48;15.68;;;;;;;5.26;100.00;101471.88;5085269;28;20101;-74
2023/01/30 05:34:18;;;;;;;31.52;15.50;;;;;;;5.28;100.00;101453.59;5088128;28;20049;-74
2023/01/30 05:36:43;;;;;;;29.95;14.30;;;;;;;5.29;100.00;101473.75;5084910;28;20028;-73
2023/01/30 05:39:09;;;;;;;29.60;13.05;;;;;;;5.29;100.00;101466.75;5087164;28;20059;-74
2023/01/30 05:41:34;;;;;;;30.05;13.85;;;;;;;5.30;100.00;101481.66;5086309;28;20028;-73
2023/01/30 05:43:59;;;;;;;26.95;12.63;;;;;;;5.33;100.00;101475.59;5085851;28;20056;-74
2023/01/30 05:46:25;;;;;;;29.30;11.10;;;;;;;5.38;100.00;101455.69;5086995;28;20428;-74
2023/01/30 05:48:50;;;;;;;28.38;11.73;;;;;;;5.44;100.00;101476.88;5084708;28;20475;-74
2023/01/30 05:51:23;;;;;;;27.27;10.25;;;;;;;5.46;100.00;101469.06;5088006;28;20028;-73
2023/01/30 05:53:49;;;;;;;25.63;10.60;;;;;;;5.40;100.00;101464.50;5084235;28;20029;-74
2023/01/30 05:56:15;;;;;;;27.08;10.38;;;;;;;5.44;100.00;101479.50;5084468;28;20056;-73
2023/01/30 05:58:41;;;;;;;25.90;10.40;;;;;;;5.38;100.00;101474.94;5087154;28;20115;-79
2023/01/30 06:01:10;;;;;;;28.83;10.65;;;;;;;5.44;100.00;101471.63;5085309;28;20487;-80
2023/01/30 06:03:36;;;;;;;28.25;10.65;;;;;;;5.41;100.00;101492.50;5086592;28;20036;-80
2023/01/30 06:06:02;;;;;;;27.88;10.68;;;;;;;5.51;100.00;101505.13;5085924;28;20028;-80
2023/01/30 06:08:29;;;;;;;27.60;10.18;;;;;;;5.46;100.00;101493.59;5085289;28;20025;-80
2023/01/30 06:10:54;;;;;;;26.65;9.68;;;;;;;5.49;100.00;101509.44;5086958;28;20020;-80
2023/01/30 06:13:19;;;;;;;26.50;8.80;;;;;;;5.53;100.00;101487.72;5083804;28;20044;-77
2023/01/30 06:15:45;;;;;;;24.27;8.32;;;;;;;5.58;100.00;101493.13;5087337;28;20116;-79
2023/01/30 06:18:10;;;;;;;24.63;8.60;;;;;;;5.51;100.00;101496.38;5084727;28;20056;-80
2023/01/30 06:20:35;;;;;;;22.98;7.18;;;;;;;5.53;100.00;101490.34;5085923;28;20101;-78
2023/01/30 06:23:01;;;;;;;22.75;8.25;;;;;;;5.45;100.00;101504.91;5085455;28;20428;-75
2023/01/30 06:25:26;;;;;;;23.33;7.78;;;;;;;5.56;100.00;101503.56;5084716;28;20074;-80
2023/01/30 06:27:52;;;;;;;23.88;7.72;;;;;;;5.56;100.00;101519.31;5086889;28;20028;-80
2023/01/30 06:30:17;;;;;;;24.27;7.30;;;;;;;5.43;100.00;101513.53;5083735;28;20028;-80
2023/01/30 06:32:42;;;;;;;23.85;7.25;;;;;;;5.46;100.00;101529.38;5086992;28;20111;-80
2023/01/30 06:35:08;;;;;;;24.00;6.82;;;;;;;5.40;100.00;101530.06;5084318;28;20024;-80
2023/01/30 06:37:34;;;;;;;22.45;6.65;;;;;;;5.32;100.00;101532.41;5085512;28;20029;-77
2023/01/30 06:39:59;;;;;;;23.50;6.50;;;;;;;5.23;100.00;101543.44;5085620;28;20478;-74
2023/01/30 06:42:25;;;;;;;24.08;6.43;;;;;;;5.10;100.00;101533.34;5084098;28;20064;-74
2023/01/30 06:44:50;;;;;;;24.33;6.00;;;;;;;5.09;100.00;101526.31;5087020;28;20020;-74
2023/01/30 06:47:16;;;;;;;24.30;5.97;;;;;;;5.07;100.00;101525.38;5084250;28;20073;-75
2023/01/30 06:49:41;;;;;;;24.88;6.20;;;;;;;5.07;100.00;101549.84;5092865;28;20028;-79
2023/01/30 06:52:06;;;;;;;24.52;6.13;;;;;;;5.03;100.00;101552.28;5094458;28;20081;-79
2023/01/30 06:54:32;;;;;;;22.73;5.60;;;;;;;4.84;100.00;101546.31;5094035;28;20040;-78
2023/01/30 06:56:57;;;;;;;22.42;5.40;;;;;;;4.91;100.00;101557.03;5093553;28;20486;-78
2023/01/30 06:59:23;;;;;;;19.83;4.93;;;;;;;4.92;100.00;101532.63;5093740;28;20051;-77
2023/01/30 07:01:48;;;;;;;21.98;4.90;;;;;;;4.80;100.00;101519.97;5093719;28;20063;-77
2023/01/30 07:04:13;;;;;;;24.30;5.30;;;;;;;4.67;100.00;101510.72;5094068;28;20428;-77
2023/01/30 07:06:38;;;;;;;22.75;5.05;;;;;;;4.65;100.00;101518.53;5092274;28;20436;-78
2023/01/30 07:09:04;;;;;;;22.98;4.93;;;;;;;4.60;100.00;101519.16;5093172;28;20068;-80
2023/01/30 07:11:30;;;;;;;21.20;4.10;;;;;;;4.56;100.00;101528.66;5093941;28;20082;-79
2023/01/30 07:13:56;;;;;;;21.63;4.90;;;;;;;4.63;100.00;101533.31;5093845;28;20028;-77
2023/01/30 07:16:27;;;;;;;24.42;5.35;;;;;;;4.52;100.00;101540.72;5092517;28;20032;-76
2023/01/30 07:18:57;;;;;;;21.77;4.55;;;;;;;4.48;100.00;101535.28;5092610;28;20420;-77
2023/01/30 07:21:23;;;;;;;24.05;4.85;;;;;;;4.52;100.00;101538.09;5092634;28;20427;-77
2023/01/30 07:23:48;;;;;;;24.73;5.07;;;;;;;4.38;100.00;101539.25;5093404;28;20153;-75
2023/01/30 07:26:14;;;;;;;22.70;4.80;;;;;;;4.34;100.00;101542.59;5092910;28;20107;-78
2023/01/30 07:28:39;;;;;;;25.83;4.53;;;;;;;4.42;100.00;101559.50;5074598;28;20039;-75
2023/01/30 07:31:04;;;;;;;22.27;4.50;;;;;;;4.48;100.00;101551.00;5092855;28;20028;-76
2023/01/30 07:33:30;;;;;;;23.98;5.00;;;;;;;4.33;100.00;101548.66;5093038;28;20024;-79
2023/01/30 07:35:55;;;;;;;24.83;4.82;;;;;;;4.40;100.00;101563.78;5093494;28;20028;-78
2023/01/30 07:38:21;;;;;;;23.27;4.65;;;;;;;4.42;100.00;101551.66;5092330;28;20608;-79
2023/01/30 07:40:46;;;;;;;23.92;5.25;;;;;;;4.31;100.00;101573.88;5093245;28;20047;-76
2023/01/30 07:43:12;;;;;;;25.25;5.10;;;;;;;4.22;100.00;101566.53;5091468;28;20097;-79
2023/01/30 07:45:45;;;;;;;22.50;4.72;;;;;;;4.26;100.00;101570.19;5092979;28;20072;-77
2023/01/30 07:48:13;;;;;;;21.92;4.80;;;;;;;4.17;100.00;101563.72;5092680;28;20028;-79
2023/01/30 07:50:38;;;;;;;23.63;4.60;;;;;;;4.30;100.00;101569.47;5093088;28;20024;-74
2023/01/30 07:53:05;;;;;;;23.13;5.00;;;;;;;4.20;100.00;101576.03;5093068;28;20035;-78
2023/01/30 07:55:32;;;;;;;23.95;4.70;;;;;;;4.16;100.00;101569.78;5092648;28;20067;-78
2023/01/30 07:57:57;;;;;;;24.15;4.22;;;;;;;4.34;100.00;101558.31;5089179;28;20031;-76
2023/01/30 08:00:22;;;;;;;25.33;4.72;;;;;;;4.33;100.00;101582.69;5092824;28;20044;-78
2023/01/30 08:02:48;;;;;;;24.63;5.03;;;;;;;4.36;100.00;101572.34;5088795;28;20033;-80
2023/01/30 08:05:13;;;;;;;22.25;4.13;;;;;;;4.38;100.00;101581.16;5084766;28;20032;-77
2023/01/30 08:07:38;;;;;;;28.08;5.28;;;;;;;4.32;100.00;101580.91;5091815;28;20028;-76
2023/01/30 08:10:04;;;;;;;24.13;4.80;;;;;;;4.29;100.00;101580.78;5092918;28;20043;-81
2023/01/30 08:12:30;;;;;;;21.95;4.43;;;;;;;4.32;100.00;101578.28;5092481;28;20070;-79
2023/01/30 08:14:55;;;;;;;25.15;4.60;;;;;;;4.38;100.00;101596.84;5092432;28;20470;-80
2023/01/30 08:17:21;;;;;;;26.88;5.10;;;;;;;4.36;100.00;101599.41;5092007;28;20383;-78
2023/01/30 08:19:46;;;;;;;25.35;4.97;;;;;;;4.46;100.00;101584.97;5092013;28;20028;-78
2023/01/30 08:22:13;;;;;;;27.80;5.35;;;;;;;4.54;100.00;101601.00;5092622;28;20117;-77
2023/01/30 08:24:38;;;;;;;25.45;4.78;;;;;;;4.62;100.00;101601.34;5091791;28;20058;-81
2023/01/30 08:27:03;;;;;;;28.95;5.05;;;;;;;4.69;100.00;101601.63;5085540;28;20024;-74
2023/01/30 08:29:29;;;;;;;24.55;4.63;;;;;;;4.77;100.00;101599.31;5092919;28;20028;-78
2023/01/30 08:31:58;;;;;;;25.20;4.35;;;;;;;4.90;100.00;101619.03;5092382;28;20471;-81
2023/01/30 08:34:25;;;;;;;23.23;4.32;;;;;;;5.04;100.00;101606.50;5092543;28;20103;-79
2023/01/30 08:36:51;;;;;;;24.65;4.55;;;;;;;5.08;100.00;101608.38;5084709;28;20050;-77
2023/01/30 08:39:16;;;;;;;22.67;4.13;;;;;;;5.14;100.00;101602.50;5082776;28;20024;-81
2023/01/30 08:41:42;;;;;;;24.90;4.47;;;;;;;5.23;100.00;101618.59;5084420;28;20362;-82
2023/01/30 08:44:11;;;;;;;24.15;4.50;;;;;;;5.34;100.00;101624.22;5081475;28;20089;-78
2023/01/30 08:46:37;;;;;;;24.67;4.72;;;;;;;5.39;100.00;101615.72;5085062;28;20020;-80
2023/01/30 08:49:03;;;;;;;23.75;4.45;;;;;;;5.36;100.00;101618.22;5080500;28;20028;-82
2023/01/30 08:51:29;;;;;;;24.60;4.38;;;;;;;5.50;100.00;101623.09;5084081;28;20024;-83
2023/01/30 08:53:54;;;;;;;25.15;4.47;;;;;;;5.55;100.00;101624.16;5082228;28;20043;-83
2023/01/30 08:56:19;;;;;;;24.58;4.28;;;;;;;5.59;100.00;101616.47;5083009;28;20482;-81
2023/01/30 08:58:45;;;;;;;24.17;4.53;;;;;;;5.64;100.00;101606.13;5083448;28;20394;-78
2023/01/30 09:01:11;;;;;;;22.80;4.32;;;;;;;5.69;100.00;101624.66;5082049;28;20024;-83
2023/01/30 09:03:36;;;;;;;23.50;4.00;;;;;;;5.93;100.00;101636.03;5084693;28;20482;-80
2023/01/30 09:06:02;;;;;;;22.42;4.00;;;;;;;5.98;100.00;101648.47;5081317;28;20029;-85
2023/01/30 09:08:27;;;;;;;23.85;4.55;;;;;;;6.01;100.00;101643.34;5084289;28;20040;-83
2023/01/30 09:10:58;;;;;;;22.27;3.85;;;;;;;6.19;100.00;101658.84;5082124;28;20111;-84
2023/01/30 09:13:24;;;;;;;22.42;3.90;;;;;;;6.13;100.00;101654.28;5083246;28;20143;-81
2023/01/30 09:15:49;;;;;;;20.33;3.75;;;;;;;6.22;100.00;101633.59;5082820;28;20450;-77
2023/01/30 09:18:14;;;;;;;24.13;4.25;;;;;;;6.22;100.00;101657.22;5080608;28;20055;-80
2023/01/30 09:20:40;;;;;;;22.35;4.18;;;;;;;6.17;100.00;101661.41;5083993;28;20054;-79
2023/01/30 09:23:05;;;;;;;22.65;3.90;;;;;;;6.28;100.00;101646.94;5080611;28;20078;-74
2023/01/30 09:25:30;;;;;;;23.83;4.75;;;;;;;6.39;100.00;101668.31;5084158;28;20114;-74
2023/01/30 09:27:56;;;;;;;22.23;4.25;;;;;;;6.45;100.00;101654.47;5081507;28;20070;-74
2023/01/30 09:30:21;;;;;;;21.80;4.10;;;;;;;6.43;100.00;101658.81;5080462;28;20024;-74
2023/01/30 09:32:47;;;;;;;24.10;4.72;;;;;;;6.65;100.00;101660.41;5081113;28;20031;-74
2023/01/30 09:35:12;;;;;;;23.17;4.35;;;;;;;6.71;100.00;101665.00;5083661;28;20501;-74
2023/01/30 09:37:38;;;;;;;21.98;4.10;;;;;;;6.78;100.00;101669.59;5080768;28;20060;-74
2023/01/30 09:40:04;;;;;;;23.42;4.28;;;;;;;6.91;100.00;101682.31;5084416;28;20032;-74
2023/01/30 09:42:43;;;;;;;21.40;3.97;;;;;;;7.01;100.00;101680.88;5081178;28;20038;-74
2023/01/30 09:45:33;;;;;;;23.90;4.05;;;;;;;7.35;100.00;101683.69;5080928;28;20078;-74
2023/01/30 09:48:10;;;;;;;21.65;4.10;;;;;;;7.07;100.00;101675.81;5081366;28;20043;-74
2023/01/30 09:50:41;;;;;;;18.50;3.63;;;;;;;6.91;100.00;101669.16;5080770;28;20056;-74
2023/01/30 09:53:12;;;;;;;21.95;4.05;;;;;;;6.92;100.00;101686.72;5080922;28;20024;-74
2023/01/30 09:55:42;;;;;;;26.40;4.75;;;;;;;6.83;100.00;101680.25;5080751;28;20463;-74
2023/01/30 09:58:23;;;;;;;20.35;3.72;;;;;;;6.78;100.00;101674.88;5084440;28;20089;-74
2023/01/30 10:00:52;;;;;;;22.65;4.18;;;;;;;6.65;100.00;101696.31;5083440;28;20064;-74
2023/01/30 10:03:32;;;;;;;24.00;4.18;;;;;;;6.87;100.00;101703.19;5086442;28;20024;-74
2023/01/30 10:06:04;;;;;;;22.77;4.13;;;;;;;7.06;100.00;101687.19;5085645;28;20088;-74
2023/01/30 10:08:44;;;;;;;22.40;3.80;;;;;;;7.15;100.00;101691.84;5086260;28;20060;-74
2023/01/30 10:11:22;;;;;;;22.30;4.22;;;;;;;6.97;100.00;101698.31;5083875;28;20032;-74
2023/01/30 10:14:00;;;;;;;22.25;3.90;;;;;;;6.95;100.00;101704.34;5084076;28;20025;-73
2023/01/30 10:17:01;;;;;;;23.27;3.67;;;;;;;7.05;100.00;101701.16;5087329;28;20082;-74
2023/01/30 10:19:54;;;;;;;25.13;4.35;;;;;;;6.95;100.00;101713.13;5074934;28;20113;-74
2023/01/30 10:22:40;;;;;;;;;;;;;;;7.30;100.00;101699.31;5085336;28;20035;-74
2023/01/30 10:25:19;;;;;;;21.23;3.72;;;;;;;6.90;100.00;101722.59;5083997;28;19925;-74
2023/01/30 10:27:53;;;;;;;22.48;4.13;;;;;;;6.94;100.00;101713.06;5083935;28;20037;-74
2023/01/30 10:30:19;;;;;;;20.38;3.50;;;;;;;6.87;100.00;101719.84;5084456;28;20051;-74
2023/01/30 10:32:57;;;;;;;20.75;3.72;;;;;;;6.92;100.00;101712.13;5087344;28;20507;-74
2023/01/30 10:35:28;;;;;;;28.77;4.50;;;;;;;6.92;100.00;101717.41;5084687;28;20026;-74
2023/01/30 10:38:19;;;;;;;19.90;3.97;;;;;;;7.07;100.00;101728.38;5085993;28;20024;-74
2023/01/30 10:41:10;;;;;;;22.58;3.42;;;;;;;7.06;100.00;101717.81;5083679;28;20035;-74
2023/01/30 10:43:42;;;;;;;23.40;3.75;;;;;;;7.16;100.00;101712.03;5078295;28;20391;-75
2023/01/30 10:46:45;;;;;;;20.42;3.50;;;;;;;7.06;100.00;101728.34;5087024;28;20362;-83
2023/01/30 10:49:16;;;;;;;21.23;3.80;;;;;;;7.10;100.00;101732.88;5083477;28;20036;-83
2023/01/30 10:51:45;;;;;;;19.33;3.70;;;;;;;7.01;100.00;101733.47;5083504;28;20089;-83
2023/01/30 10:54:36;;;;;;;22.83;4.13;;;;;;;6.85;100.00;101737.31;5083507;28;20024;-80
2023/01/30 10:57:22;;;;;;;21.08;3.70;;;;;;;6.96;100.00;101725.44;5085700;28;20028;-76
2023/01/30 11:00:20;;;;;;;22.10;3.67;;;;;;;6.86;100.00;101738.19;5083103;28;20043;-76
2023/01/30 11:02:53;;;;;;;24.02;4.25;;;;;;;6.74;100.00;101731.69;5070255;28;20076;-81
2023/01/30 11:05:23;;;;;;;21.25;3.63;;;;;;;6.68;100.00;101723.59;5086306;28;20027;-75
2023/01/30 11:07:49;;;;;;;21.80;4.07;;;;;;;6.59;100.00;101733.78;5083658;28;20025;-75
2023/01/30 11:10:23;;;;;;;25.40;4.63;;;;;;;6.61;100.00;101745.22;5086306;28;20473;-75
2023/01/30 11:12:59;;;;;;;24.05;4.10;;;;;;;6.60;100.00;101741.72;5081909;28;20017;-82
2023/01/30 11:15:38;;;;;;;21.80;3.60;;;;;;;6.63;100.00;101744.44;5084611;28;20028;-75
2023/01/30 11:18:06;;;;;;;19.52;3.50;;;;;;;6.56;100.00;101750.31;5085168;28;20028;-83
2023/01/30 11:20:39;;;;;;;21.95;4.03;;;;;;;6.55;100.00;101740.69;5084042;28;20467;-77
2023/01/30 11:23:07;;;;;;;22.67;4.07;;;;;;;6.70;100.00;101742.03;5085202;28;20150;-83
2023/01/30 11:25:48;;;;;;;23.13;3.60;;;;;;;6.88;100.00;101737.41;5083398;28;20039;-78
2023/01/30 11:28:18;;;;;;;23.52;4.32;;;;;;;6.96;100.00;101735.94;5082540;28;20024;-81
2023/01/30 11:30:53;;;;;;;19.58;3.80;;;;;;;7.19;100.00;101733.16;5082655;28;20123;-82